Time;durP1;ratioP1;P1;durP2;ratioP2;P2;SDS_P1;SDS_P2;PMS_P1;PMS_P2;Temp;Humidity;BMP_temperature;BMP_pressure;BME280_temperature;BME280_humidity;BME280_pressure;Samples;Min_cycle;Max_cycle;Signal;HPM_P1;HPM_P2
2023/05/17 00:01:17;;;;;;;;;;;;;;;9.64;71.09;101272.52;109067;1254;67054;-82
2023/05/17 00:03:44;;;;;;;;;;;;;;;9.63;71.13;101273.34;109046;1254;124533;-83
2023/05/17 00:06:11;;;;;;;;;;;;;;;9.62;71.23;101271.20;108024;1257;61572;-83
2023/05/17 00:08:38;;;;;;;;;;;;;;;9.63;71.25;101271.07;108045;1254;125239;-83
2023/05/17 00:11:07;;;;;;;;;;;;;;;9.64;71.37;101272.19;109076;1257;74934;-82
2023/05/17 00:13:34;;;;;;;;;;;;;;;9.66;71.37;101272.58;108836;1254;67056;-82
2023/05/17 00:16:01;;;;;;;;;;;;;;;9.67;71.54;101275.80;108932;1254;124666;-82
2023/05/17 00:18:28;;;;;;;;;;;;;;;9.69;71.51;101272.90;108633;1254;240578;-82
2023/05/17 00:20:55;;;;;;;;;;;;;;;9.72;71.59;101269.48;108964;1254;125607;-82
2023/05/17 00:23:23;;;;;;;;;;;;;;;9.74;71.61;101262.19;108513;1256;75169;-82
2023/05/17 00:25:50;;;;;;;;;;;;;;;9.76;71.64;101264.20;107789;1259;66053;-81
2023/05/17 00:28:17;;;;;;;;;;;;;;;9.78;71.66;101262.86;107583;1254;124708;-82
2023/05/17 00:30:44;;;;;;;;;;;;;;;9.80;71.67;101263.48;107561;1254;60578;-82
2023/05/17 00:33:11;;;;;;;;;;;;;;;9.80;71.65;101268.73;107496;1255;125063;-82
2023/05/17 00:35:38;;;;;;;;;;;;;;;9.79;71.69;101266.77;107793;1254;74967;-82
2023/05/17 00:38:05;;;;;;;;;;;;;;;9.80;71.70;101262.23;107744;1257;125247;-82
2023/05/17 00:40:33;;;;;;;;;;;;;;;9.79;71.78;101264.31;107914;1257;72639;-82
2023/05/17 00:43:00;;;;;;;;;;;;;;;9.79;71.80;101273.24;107754;1262;60306;-82
2023/05/17 00:45:28;;;;;;;;;;;;;;;9.80;71.72;101267.15;107944;1259;125140;-82
2023/05/17 00:47:56;;;;;;;;;;;;;;;9.82;71.79;101267.55;107927;1258;73400;-82
2023/05/17 00:50:23;;;;;;;;;;;;;;;9.83;71.83;101263.04;107531;1257;124695;-82
2023/05/17 00:52:50;;;;;;;;;;;;;;;9.84;71.87;101266.23;107796;1254;70647;-82
2023/05/17 00:55:18;;;;;;;;;;;;;;;9.83;71.86;101263.40;107811;1257;60465;-82
2023/05/17 00:57:45;;;;;;;;;;;;;;;9.83;71.89;101264.98;107721;1258;125073;-82
2023/05/17 01:00:12;;;;;;;;;;;;;;;9.85;71.99;101267.66;107779;1254;74739;-82
2023/05/17 01:02:39;;;;;;;;;;;;;;;9.86;71.90;101270.87;107712;1259;125262;-82
2023/05/17 01:05:06;;;;;;;;;;;;;;;9.86;71.93;101268.60;107568;1259;72676;-82
2023/05/17 01:07:33;;;;;;;;;;;;;;;9.86;71.95;101267.89;107637;1257;60074;-82
2023/05/17 01:10:00;;;;;;;;;;;;;;;9.86;72.03;101268.24;108125;1254;124957;-83
2023/05/17 01:12:48;;;;;;;;;;;;;;;9.89;72.16;101267.46;108203;1259;73359;-82
2023/05/17 01:15:15;;;;;;;;;;;;;;;9.90;72.09;101267.88;107788;1255;125031;-81
2023/05/17 01:17:46;;;;;;;;;;;;;;;9.91;72.03;101266.86;108014;1257;70416;-82
2023/05/17 01:20:17;;;;;;;;;;;;;;;9.91;72.06;101266.66;107873;1255;125896;-82
2023/05/17 01:23:03;;;;;;;;;;;;;;;9.90;72.07;101264.00;108258;1254;60052;-82
2023/05/17 01:25:41;;;;;;;;;;;;;;;9.89;72.09;101266.95;108430;1258;74675;-81
2023/05/17 01:28:09;;;;;;;;;;;;;;;9.88;72.05;101264.83;108062;1257;124673;-82
2023/05/17 01:30:36;;;;;;;;;;;;;;;9.88;72.19;101256.05;107708;1257;72691;-82
2023/05/17 01:33:03;;;;;;;;;;;;;;;9.88;72.15;101252.70;107540;1257;125216;-82
2023/05/17 01:35:31;;;;;;;;;;;;;;;9.85;72.08;101250.52;107875;1255;59630;-82
2023/05/17 01:37:57;;;;;;;;;;;;;;;9.85;72.28;101258.77;107867;1255;73626;-82
2023/05/17 01:40:24;;;;;;;;;;;;;;;9.84;72.22;101256.09;107676;1254;125135;-82
2023/05/17 01:43:01;;;;;;;;;;;;;;;9.82;72.27;101253.20;107945;1256;72676;-82
2023/05/17 01:45:42;;;;;;;;;;;;;;;9.81;72.32;101255.25;108308;1254;125368;-82
2023/05/17 01:48:09;;;;;;;;;;;;;;;9.77;72.30;101258.45;108105;1259;60642;-82
2023/05/17 01:50:36;;;;;;;;;;;;;;;9.73;72.36;101263.92;107697;1257;124788;-82
2023/05/17 01:53:08;;;;;;;;;;;;;;;9.71;72.42;101264.73;108057;1256;67093;-82
2023/05/17 01:55:53;;;;;;;;;;;;;;;9.68;72.44;101263.38;108092;1259;71288;-81
2023/05/17 01:58:23;;;;;;;;;;;;;;;9.66;72.50;101255.77;107620;1260;124916;-81
2023/05/17 02:00:51;;;;;;;;;;;;;;;9.65;72.59;101253.63;107659;1260;60348;-81
2023/05/17 02:03:18;;;;;;;;;;;;;;;9.61;72.61;101256.28;107728;1260;124733;-82
2023/05/17 02:05:45;;;;;;;;;;;;;;;9.59;72.73;101263.58;107777;1256;65793;-81
2023/05/17 02:08:12;;;;;;;;;;;;;;;9.55;72.76;101256.77;107721;1257;124777;-81
2023/05/17 02:10:39;;;;;;;;;;;;;;;9.51;72.78;101253.64;108893;1253;59749;-81
2023/05/17 02:13:06;;;;;;;;;;;;;;;9.47;72.94;101254.73;109107;1257;59062;-81
2023/05/17 02:15:33;;;;;;;;;;;;;;;9.45;73.01;101250.98;109024;1258;124480;-81
2023/05/17 02:18:00;;;;;;;;;;;;;;;9.44;73.10;101249.89;109105;1254;67698;-82
2023/05/17 02:20:27;;;;;;;;;;;;;;;9.43;73.11;101255.42;108763;1256;124728;-82
2023/05/17 02:22:54;;;;;;;;;;;;;;;9.40;73.22;101254.64;108935;1255;59113;-81
2023/05/17 02:25:21;;;;;;;;;;;;;;;9.39;73.19;101257.19;108956;1257;59271;-81
2023/05/17 02:27:48;;;;;;;;;;;;;;;9.38;73.37;101258.03;109070;1254;124554;-81
2023/05/17 02:30:16;;;;;;;;;;;;;;;9.36;73.37;101258.86;108970;1260;66795;-81
2023/05/17 02:32:42;;;;;;;;;;;;;;;9.34;73.41;101263.15;108845;1257;124580;-81
2023/05/17 02:35:09;;;;;;;;;;;;;;;9.33;73.47;101263.31;109158;1254;59445;-81
2023/05/17 02:37:37;;;;;;;;;;;;;;;9.31;73.50;101264.65;108929;1254;59338;-81
2023/05/17 02:40:08;;;;;;;;;;;;;;;9.30;73.54;101269.84;109032;1254;123934;-81
2023/05/17 02:42:35;;;;;;;;;;;;;;;9.29;73.64;101269.98;108997;1257;66171;-81
2023/05/17 02:45:02;;;;;;;;;;;;;;;9.28;73.71;101268.34;108852;1254;123929;-81
2023/05/17 02:47:29;;;;;;;;;;;;;;;9.28;73.68;101270.29;108846;1261;59461;-82
2023/05/17 02:49:56;;;;;;;;;;;;;;;9.28;73.78;101273.08;108868;1254;59463;-82
2023/05/17 02:52:23;;;;;;;;;;;;;;;9.25;73.76;101272.64;108827;1260;124131;-82
2023/05/17 02:54:50;;;;;;;;;;;;;;;9.25;73.87;101270.68;108947;1254;67521;-82
2023/05/17 02:57:17;;;;;;;;;;;;;;;9.24;73.86;101268.20;108999;1260;124651;-82
2023/05/17 02:59:44;;;;;;;;;;;;;;;9.24;73.91;101275.03;109079;1256;59324;-82
2023/05/17 03:02:11;;;;;;;;;;;;;;;9.25;74.00;101275.26;108951;1257;124563;-82
2023/05/17 03:04:38;;;;;;;;;;;;;;;9.29;74.06;101272.79;108941;1260;74511;-82
2023/05/17 03:07:05;;;;;;;;;;;;;;;9.35;74.17;101276.50;109025;1259;66804;-81
2023/05/17 03:09:32;;;;;;;;;;;;;;;9.43;74.28;101273.82;108943;1260;123867;-80
2023/05/17 03:11:59;;;;;;;;;;;;;;;9.51;74.26;101276.41;108856;1256;60081;-81
2023/05/17 03:14:26;;;;;;;;;;;;;;;9.59;74.13;101278.59;108765;1257;124552;-81
2023/05/17 03:16:53;;;;;;;;;;;;;;;9.66;74.10;101282.39;109081;1254;74703;-81
2023/05/17 03:19:20;;;;;;;;;;;;;;;9.74;74.08;101287.42;109069;1254;67002;-81
2023/05/17 03:21:47;;;;;;;;;;;;;;;9.82;73.96;101287.55;108942;1254;124629;-81
2023/05/17 03:24:14;;;;;;;;;;;;;;;9.88;73.82;101292.52;108938;1257;59368;-81
2023/05/17 03:26:42;;;;;;;;;;;;;;;9.94;73.67;101291.48;109050;1254;124852;-80
2023/05/17 03:29:09;;;;;;;;;;;;;;;9.96;73.40;101294.55;109108;1257;74536;-81
2023/05/17 03:31:36;;;;;;;;;;;;;;;10.02;73.42;101300.90;109090;1257;65671;-80
2023/05/17 03:34:03;;;;;;;;;;;;;;;10.14;73.35;101300.60;108920;1257;125219;-80
2023/05/17 03:36:33;;;;;;;;;;;;;;;10.28;73.31;101290.24;109096;1254;59906;-81
2023/05/17 03:39:00;;;;;;;;;;;;;;;10.50;73.14;101290.50;108866;1254;125035;-81
2023/05/17 03:41:27;;;;;;;;;;;;;;;10.71;72.89;101292.41;108879;1256;73373;-82
2023/05/17 03:43:54;;;;;;;;;;;;;;;10.99;72.90;101290.17;108868;1258;65780;-81
2023/05/17 03:46:21;;;;;;;;;;;;;;;11.41;72.71;101294.45;108945;1254;125087;-81
2023/05/17 03:48:48;;;;;;;;;;;;;;;11.88;72.43;101303.92;109057;1254;59309;-81
2023/05/17 03:51:14;;;;;;;;;;;;;;;12.33;71.82;101306.41;108879;1257;125328;-82
2023/05/17 03:53:42;;;;;;;;;;;;;;;12.57;70.80;101306.19;108894;1254;73122;-82
2023/05/17 03:56:09;;;;;;;;;;;;;;;12.78;70.35;101301.58;108783;1256;125504;-81
2023/05/17 03:58:36;;;;;;;;;;;;;;;13.22;70.49;101302.64;108077;1254;72374;-82
2023/05/17 04:01:03;;;;;;;;;;;;;;;13.91;70.30;101306.77;108036;1256;59673;-82
2023/05/17 04:03:30;;;;;;;;;;;;;;;14.66;69.35;101315.79;108077;1254;124578;-82
2023/05/17 04:06:07;;;;;;;;;;;;;;;15.20;68.07;101322.35;108399;1258;73413;-82
2023/05/17 04:08:34;;;;;;;;;;;;;;;15.50;66.60;101309.88;108354;1254;124396;-82
2023/05/17 04:11:22;;;;;;;;;;;;;;;15.57;65.53;101291.38;108209;1255;72379;-82
2023/05/17 04:13:49;;;;;;;;;;;;;;;15.47;64.66;101307.17;108518;1257;60068;-82
2023/05/17 04:16:16;;;;;;;;;;;;;;;15.45;64.14;101321.66;108286;1254;124330;-82
2023/05/17 04:18:44;;;;;;;;;;;;;;;15.71;64.14;101322.91;107938;1256;74702;-82
2023/05/17 04:21:11;;;;;;;;;;;;;;;16.23;63.80;101321.41;107758;1257;124423;-82
2023/05/17 04:23:39;;;;;;;;;;;;;;;16.69;62.92;101321.17;107919;1255;71091;-81
2023/05/17 04:26:06;;;;;;;;;;;;;;;17.10;62.44;101323.84;107930;1255;124257;-83
2023/05/17 04:28:33;;;;;;;;;;;;;;;17.74;62.19;101321.55;107829;1256;61215;-82
2023/05/17 04:31:00;;;;;;;;;;;;;;;18.43;61.18;101318.60;108011;1260;73345;-83
2023/05/17 04:33:29;;;;;;;;;;;;;;;18.74;59.87;101323.09;108097;1254;124219;-83
2023/05/17 04:35:56;;;;;;;;;;;;;;;18.61;58.53;101330.19;108044;1254;71563;-82
2023/05/17 04:38:23;;;;;;;;;;;;;;;18.35;58.09;101331.55;107849;1257;124325;-81
2023/05/17 04:40:50;;;;;;;;;;;;;;;18.17;57.70;101331.52;108123;1260;60132;-82
2023/05/17 04:43:17;;;;;;;;;;;;;;;17.92;57.22;101331.61;108306;1257;75476;-82
2023/05/17 04:49:07;;;;;;;;;;;;;;;17.42;56.95;101335.76;109218;1254;72543;-83
2023/05/17 04:51:34;;;;;;;;;;;;;;;17.36;56.65;101337.84;108451;1254;124051;-82
2023/05/17 04:54:02;;;;;;;;;;;;;;;17.35;56.79;101333.75;108220;1256;59940;-83
2023/05/17 04:56:29;;;;;;;;;;;;;;;17.61;56.71;101334.43;108129;1257;124781;-83
2023/05/17 04:58:55;;;;;;;;;;;;;;;17.77;56.05;101335.59;108262;1254;66722;-83
2023/05/17 05:01:22;;;;;;;;;;;;;;;17.54;55.25;101333.88;108306;1258;71715;-84
2023/05/17 05:03:49;;;;;;;;;;;;;;;17.19;54.94;101339.49;108144;1256;124343;-83
2023/05/17 05:06:16;;;;;;;;;;;;;;;16.84;55.10;101340.99;108511;1254;60379;-83
2023/05/17 05:08:43;;;;;;;;;;;;;;;16.59;55.24;101344.98;108384;1254;124656;-83
2023/05/17 05:11:10;;;;;;;;;;;;;;;16.51;55.46;101346.87;108370;1257;65779;-83
2023/05/17 05:13:37;;;;;;;;;;;;;;;16.37;55.15;101345.30;108405;1257;73032;-85
2023/05/17 05:16:05;;;;;;;;;;;;;;;16.17;55.19;101350.23;108077;1255;124527;-85
2023/05/17 05:18:33;;;;;;;;;;;;;;;16.17;55.33;101353.05;108390;1254;59940;-84
2023/05/17 05:21:00;;;;;;;;;;;;;;;16.26;55.57;101355.27;108334;1254;125537;-85
2023/05/17 05:23:27;;;;;;;;;;;;;;;16.40;55.28;101359.67;108378;1260;67307;-84
2023/05/17 05:25:58;;;;;;;;;;;;;;;16.51;55.18;101360.50;108006;1256;71401;-86
2023/05/17 05:28:25;;;;;;;;;;;;;;;16.68;55.10;101362.45;107904;1254;124090;-83
2023/05/17 05:30:59;;;;;;;;;;;;;;;17.11;55.44;101365.67;108170;1254;61228;-85
2023/05/17 05:33:26;;;;;;;;;;;;;;;17.66;55.17;101366.59;108768;1254;123999;-83
2023/05/17 05:35:53;;;;;;;;;;;;;;;17.82;54.11;101365.11;108329;1254;67497;-84
2023/05/17 05:38:20;;;;;;;;;;;;;;;17.63;53.58;101367.10;107985;1254;124492;-85
2023/05/17 05:40:47;;;;;;;;;;;;;;;17.37;53.51;101363.04;108015;1256;60475;-83
2023/05/17 05:43:14;;;;;;;;;;;;;;;17.11;53.57;101368.70;107816;1256;61691;-85
2023/05/17 05:45:51;;;;;;;;;;;;;;;16.88;53.56;101369.92;107896;1260;124290;-85
2023/05/17 05:48:19;;;;;;;;;;;;;;;16.68;53.76;101372.55;108334;1254;65846;-83
2023/05/17 05:50:46;;;;;;;;;;;;;;;16.53;53.77;101369.03;107901;1260;124631;-84
2023/05/17 05:53:13;;;;;;;;;;;;;;;16.39;53.80;101375.07;108121;1256;62343;-85
2023/05/17 05:55:41;;;;;;;;;;;;;;;16.19;53.74;101371.84;108023;1254;60946;-84
2023/05/17 05:58:08;;;;;;;;;;;;;;;16.03;53.80;101374.48;107550;1258;124694;-83
2023/05/17 06:00:36;;;;;;;;;;;;;;;15.98;53.99;101379.89;107589;1257;64834;-84
2023/05/17 06:03:03;;;;;;;;;;;;;;;15.96;54.17;101386.95;107681;1257;124252;-84
2023/05/17 06:05:30;;;;;;;;;;;;;;;15.86;53.98;101385.06;107841;1254;60386;-85
2023/05/17 06:07:58;;;;;;;;;;;;;;;15.77;53.85;101385.45;108260;1257;59707;-84
2023/05/17 06:10:25;;;;;;;;;;;;;;;15.70;53.85;101388.70;107976;1253;123853;-85
2023/05/17 06:12:52;;;;;;;;;;;;;;;15.63;53.89;101386.83;107747;1260;67641;-85
2023/05/17 06:15:20;;;;;;;;;;;;;;;15.60;53.89;101388.20;107539;1262;124312;-86
2023/05/17 06:17:47;;;;;;;;;;;;;;;15.57;53.85;101391.86;107912;1257;59282;-85
2023/05/17 06:20:15;;;;;;;;;;;;;;;15.52;53.79;101386.48;107815;1256;124236;-84
2023/05/17 06:22:48;;;;;;;;;;;;;;;15.50;53.79;101386.27;108167;1254;73055;-85
2023/05/17 06:25:15;;;;;;;;;;;;;;;15.47;53.78;101387.48;107935;1254;66922;-84
2023/05/17 06:27:44;;;;;;;;;;;;;;;15.36;53.31;101384.30;107971;1253;124145;-85
2023/05/17 06:30:13;;;;;;;;;;;;;;;15.18;53.05;101386.14;107978;1254;60800;-84
2023/05/17 06:32:40;;;;;;;;;;;;;;;15.07;52.81;101392.52;107725;1254;124710;-85
2023/05/17 06:35:09;;;;;;;;;;;;;;;15.01;53.00;101390.80;107811;1256;73699;-84
2023/05/17 06:37:36;;;;;;;;;;;;;;;15.02;52.80;101393.12;108067;1256;66879;-84
2023/05/17 06:40:05;;;;;;;;;;;;;;;15.01;52.78;101397.00;107770;1254;124808;-83
2023/05/17 06:42:32;;;;;;;;;;;;;;;14.97;52.49;101402.77;108087;1255;59304;-84
2023/05/17 06:45:07;;;;;;;;;;;;;;;14.96;52.69;101407.16;107811;1254;124280;-83
2023/05/17 06:47:34;;;;;;;;;;;;;;;15.02;52.52;101407.77;107966;1257;73404;-86
2023/05/17 06:50:01;;;;;;;;;;;;;;;15.10;52.73;101410.74;107678;1254;66832;-82
2023/05/17 06:52:28;;;;;;;;;;;;;;;15.18;52.50;101407.90;107620;1257;72805;-83
2023/05/17 06:54:55;;;;;;;;;;;;;;;15.23;52.45;101410.09;107593;1257;59536;-84
2023/05/17 06:57:23;;;;;;;;;;;;;;;15.31;52.37;101410.41;107869;1257;124728;-85
2023/05/17 06:59:59;;;;;;;;;;;;;;;15.32;52.01;101417.33;108135;1254;72401;-84
2023/05/17 07:02:26;;;;;;;;;;;;;;;15.22;51.63;101419.27;108278;1254;124225;-86
2023/05/17 07:04:53;;;;;;;;;;;;;;;15.13;51.63;101419.11;108434;1254;72682;-84
2023/05/17 07:07:21;;;;;;;;;;;;;;;15.07;51.64;101418.83;108312;1256;61461;-84
2023/05/17 07:09:56;;;;;;;;;;;;;;;15.12;51.99;101419.80;108362;1254;124259;-86
2023/05/17 07:12:29;;;;;;;;;;;;;;;15.25;52.12;101421.27;108140;1254;74746;-87
2023/05/17 07:14:56;;;;;;;;;;;;;;;15.38;52.22;101423.41;108242;1254;124791;-86
2023/05/17 07:17:25;;;;;;;;;;;;;;;15.47;52.00;101421.80;108221;1254;71088;-87
2023/05/17 07:19:52;;;;;;;;;;;;;;;15.74;52.05;101422.92;108182;1254;61346;-86
2023/05/17 07:22:19;;;;;;;;;;;;;;;16.02;51.79;101427.56;108155;1254;124575;-85
2023/05/17 07:24:53;;;;;;;;;;;;;;;16.36;51.89;101430.48;107653;1254;74689;-85
2023/05/17 07:27:21;;;;;;;;;;;;;;;16.68;51.42;101430.52;107650;1255;124466;-85
2023/05/17 07:29:48;;;;;;;;;;;;;;;16.73;50.64;101432.67;107951;1254;71378;-83
2023/05/17 07:32:16;;;;;;;;;;;;;;;16.70;50.62;101436.73;108037;1254;124798;-83
2023/05/17 07:34:44;;;;;;;;;;;;;;;16.70;50.56;101435.65;107895;1254;61211;-85
2023/05/17 07:37:12;;;;;;;;;;;;;;;16.80;50.79;101437.37;107649;1256;74752;-84
2023/05/17 07:39:39;;;;;;;;;;;;;;;16.91;50.18;101440.51;107574;1256;124747;-84
2023/05/17 07:42:06;;;;;;;;;;;;;;;16.88;49.81;101441.19;107850;1257;72351;-84
2023/05/17 07:44:33;;;;;;;;;;;;;;;16.83;50.00;101448.77;107905;1254;59942;-85
2023/05/17 07:47:00;;;;;;;;;;;;;;;16.90;50.06;101453.27;107980;1256;61145;-83
2023/05/17 07:49:27;;;;;;;;;;;;;;;16.94;49.99;101462.35;107719;1253;74332;-85
2023/05/17 07:52:01;;;;;;;;;;;;;;;16.94;49.90;101465.54;107988;1257;124041;-85
2023/05/17 07:54:29;;;;;;;;;;;;;;;16.82;49.76;101470.19;107804;1254;73056;-84
2023/05/17 07:56:58;;;;;;;;;;;;;;;16.70;49.77;101476.60;107527;1254;123281;-84
2023/05/17 07:59:25;;;;;;;;;;;;;;;16.63;49.94;101480.95;107903;1256;59922;-82
2023/05/17 08:01:52;;;;;;;;;;;;;;;16.75;50.05;101481.42;108186;1257;73763;-84
2023/05/17 08:04:19;;;;;;;;;;;;;;;16.89;49.96;101482.69;108218;1257;125353;-82
2023/05/17 08:06:47;;;;;;;;;;;;;;;17.06;49.97;101484.81;108180;1254;71334;-83
2023/05/17 08:09:17;;;;;;;;;;;;;;;17.22;49.88;101487.98;107363;1254;124168;-84
2023/05/17 08:11:47;;;;;;;;;;;;;;;17.30;49.62;101497.27;107565;1255;60147;-83
2023/05/17 08:14:15;;;;;;;;;;;;;;;17.37;49.47;101505.15;107777;1256;124907;-85
2023/05/17 08:16:44;;;;;;;;;;;;;;;17.36;49.22;101504.43;107968;1257;67342;-83
2023/05/17 08:19:17;;;;;;;;;;;;;;;17.36;48.96;101505.85;108229;1256;70561;-82
2023/05/17 08:21:45;;;;;;;;;;;;;;;17.37;48.75;101503.55;108191;1254;124110;-82
2023/05/17 08:24:12;;;;;;;;;;;;;;;17.36;48.52;101505.50;108482;1254;59598;-82
2023/05/17 08:26:39;;;;;;;;;;;;;;;17.30;48.59;101507.03;108199;1257;124811;-82
2023/05/17 08:29:06;;;;;;;;;;;;;;;17.25;48.44;101510.19;107940;1257;64773;-82
2023/05/17 08:31:33;;;;;;;;;;;;;;;17.27;48.31;101513.39;107753;1254;72766;-83
2023/05/17 08:34:00;;;;;;;;;;;;;;;17.29;48.12;101514.12;107678;1257;124655;-82
2023/05/17 08:36:27;;;;;;;;;;;;;;;17.28;47.99;101516.23;108053;1257;60092;-82
2023/05/17 08:38:54;;;;;;;;;;;;;;;17.26;47.92;101520.84;107896;1256;124265;-82
2023/05/17 08:41:22;;;;;;;;;;;;;;;17.15;47.62;101522.50;107757;1256;66944;-82
2023/05/17 08:43:50;;;;;;;;;;;;;;;16.96;47.58;101518.39;107910;1254;71934;-82
2023/05/17 08:46:20;;;;;;;;;;;;;;;17.07;48.11;101516.39;107955;1256;124093;-82
2023/05/17 08:48:50;;;;;;;;;;;;;;;17.35;48.18;101511.86;108072;1254;60065;-81
2023/05/17 08:51:20;;;;;;;;;;;;;;;17.65;48.06;101508.23;107946;1260;124774;-82
2023/05/17 08:53:49;;;;;;;;;;;;;;;18.05;47.77;101508.54;107975;1254;67443;-85
2023/05/17 08:56:18;;;;;;;;;;;;;;;18.25;47.24;101506.16;107963;1254;124268;-83
2023/05/17 08:58:47;;;;;;;;;;;;;;;18.31;46.86;101511.72;107925;1254;59581;-83
2023/05/17 09:01:14;;;;;;;;;;;;;;;18.30;46.46;101520.41;107654;1255;61848;-82
2023/05/17 09:03:42;;;;;;;;;;;;;;;18.27;46.28;101524.49;107373;1254;124752;-83
2023/05/17 09:06:09;;;;;;;;;;;;;;;18.27;46.12;101526.08;107361;1256;67085;-83
2023/05/17 09:08:36;;;;;;;;;;;;;;;18.31;45.81;101529.13;107373;1257;124845;-82
2023/05/17 09:11:04;;;;;;;;;;;;;;;18.28;45.70;101531.59;107551;1261;62021;-84
2023/05/17 09:13:30;;;;;;;;;;;;;;;18.19;45.43;101533.50;107554;1257;60489;-84
2023/05/17 09:15:58;;;;;;;;;;;;;;;18.02;45.30;101534.11;107604;1256;124421;-84
2023/05/17 09:18:31;;;;;;;;;;;;;;;17.90;45.42;101533.13;107800;1255;65769;-83
2023/05/17 09:21:02;;;;;;;;;;;;;;;17.88;45.45;101537.91;107967;1257;124578;-82
2023/05/17 09:23:30;;;;;;;;;;;;;;;17.88;45.53;101533.98;107925;1256;60964;-83
2023/05/17 09:26:02;;;;;;;;;;;;;;;17.98;45.71;101532.48;107815;1257;61874;-83
2023/05/17 09:28:35;;;;;;;;;;;;;;;18.18;45.76;101534.02;107634;1257;124751;-82
2023/05/17 09:31:14;;;;;;;;;;;;;;;18.22;45.34;101542.58;107866;1256;65788;-82
2023/05/17 09:33:48;;;;;;;;;;;;;;;18.06;45.15;101540.52;107679;1256;124300;-83
2023/05/17 09:36:16;;;;;;;;;;;;;;;17.95;45.28;101542.58;107859;1256;60261;-82
2023/05/17 09:38:48;;;;;;;;;;;;;;;18.02;45.53;101543.87;107931;1256;125158;-82
2023/05/17 09:41:15;;;;;;;;;;;;;;;18.21;45.59;101543.46;107621;1256;74479;-82
2023/05/17 09:43:42;;;;;;;;;;;;;;;18.42;45.42;101545.36;107552;1259;67103;-82
2023/05/17 09:46:09;;;;;;;;;;;;;;;18.58;44.80;101546.33;107733;1256;124686;-83
2023/05/17 09:48:38;;;;;;;;;;;;;;;18.59;44.47;101550.06;108083;1256;60542;-82
2023/05/17 09:51:06;;;;;;;;;;;;;;;18.64;44.43;101555.77;107959;1256;124039;-82
2023/05/17 09:53:39;;;;;;;;;;;;;;;18.73;44.40;101563.27;108849;1256;73419;-82
2023/05/17 09:56:08;;;;;;;;;;;;;;;18.52;43.48;101566.20;107754;1256;66207;-82
2023/05/17 09:58:36;;;;;;;;;;;;;;;17.95;43.44;101570.97;107798;1257;74194;-82
2023/05/17 10:01:03;;;;;;;;;;;;;;;17.62;43.95;101562.86;107758;1257;62014;-82
2023/05/17 10:03:34;;;;;;;;;;;;;;;17.62;43.91;101562.86;107950;1257;124554;-81
2023/05/17 10:06:11;;;;;;;;;;;;;;;17.67;43.75;101559.72;108092;1257;75045;-81
2023/05/17 10:08:38;;;;;;;;;;;;;;;17.67;43.51;101563.80;108076;1256;124976;-81
2023/05/17 10:11:06;;;;;;;;;;;;;;;17.59;43.32;101569.94;108012;1254;73249;-82
2023/05/17 10:13:35;;;;;;;;;;;;;;;17.61;43.35;101569.77;107812;1254;61187;-81
2023/05/17 10:16:02;;;;;;;;;;;;;;;17.74;43.18;101565.11;107672;1254;124535;-81
2023/05/17 10:18:30;;;;;;;;;;;;;;;18.04;43.54;101558.27;108032;1259;73563;-81
2023/05/17 10:20:59;;;;;;;;;;;;;;;18.36;43.21;101559.00;108002;1256;124116;-83
2023/05/17 10:23:51;;;;;;;;;;;;;;;18.64;42.87;101560.58;107829;1254;71423;-81
2023/05/17 10:26:19;;;;;;;;;;;;;;;18.69;42.67;101562.73;107698;1257;125059;-82
2023/05/17 10:28:46;;;;;;;;;;;;;;;18.71;42.52;101564.34;107980;1256;59598;-83
2023/05/17 10:31:16;;;;;;;;;;;;;;;18.61;41.99;101564.30;107736;1253;73060;-83
2023/05/17 10:33:44;;;;;;;;;;;;;;;18.40;41.37;101570.22;107671;1256;124627;-82
2023/05/17 10:36:12;;;;;;;;;;;;;;;18.14;41.19;101566.32;107845;1254;73483;-83
2023/05/17 10:38:40;;;;;;;;;;;;;;;18.01;40.96;101567.66;108911;1254;124394;-82
2023/05/17 10:41:06;;;;;;;;;;;;;;;17.82;40.73;101561.63;108879;1256;60984;-82
2023/05/17 10:43:33;;;;;;;;;;;;;;;17.69;40.76;101561.68;109091;1254;73356;-82
2023/05/17 10:46:01;;;;;;;;;;;;;;;17.55;40.84;101566.16;108807;1259;124393;-83
2023/05/17 10:48:29;;;;;;;;;;;;;;;17.55;40.66;101560.66;108336;1256;70970;-81
2023/05/17 10:50:56;;;;;;;;;;;;;;;17.61;40.61;101560.54;107874;1257;124073;-82
2023/05/17 10:53:23;;;;;;;;;;;;;;;17.69;40.30;101554.77;107959;1253;59895;-82
2023/05/17 10:55:51;;;;;;;;;;;;;;;17.80;40.38;101554.51;108136;1256;74675;-81
2023/05/17 10:58:19;;;;;;;;;;;;;;;17.95;40.35;101563.17;108250;1253;124784;-82
2023/05/17 11:00:47;;;;;;;;;;;;;;;18.11;40.28;101562.58;108235;1253;70962;-83
2023/05/17 11:03:35;;;;;;;;;;;;;;;18.30;40.03;101559.67;107858;1256;123999;-83
2023/05/17 11:06:12;;;;;;;;;;;;;;;18.52;39.98;101560.16;107805;1254;61015;-83
2023/05/17 11:08:46;;;;;;;;;;;;;;;18.73;39.72;101563.09;107579;1254;124529;-83
2023/05/17 11:11:16;;;;;;;;;;;;;;;18.87;39.49;101568.70;107580;1257;67152;-83
2023/05/17 11:13:51;;;;;;;;;;;;;;;19.02;39.44;101563.41;107868;1256;72733;-82
2023/05/17 11:16:24;;;;;;;;;;;;;;;19.18;39.53;101568.63;107967;1254;124258;-83
2023/05/17 11:19:07;;;;;;;;;;;;;;;19.28;39.14;101574.52;107769;1256;60950;-87
2023/05/17 11:21:34;;;;;;;;;;;;;;;19.29;39.13;101571.33;107499;1255;124582;-84
2023/05/17 11:24:03;;;;;;;;;;;;;;;19.26;38.60;101578.07;107461;1254;67066;-84
2023/05/17 11:26:37;;;;;;;;;;;;;;;19.07;37.66;101579.80;107389;1254;124648;-84
2023/05/17 11:29:11;;;;;;;;;;;;;;;18.83;37.19;101577.20;108279;1254;59777;-84
2023/05/17 11:31:44;;;;;;;;;;;;;;;18.60;37.07;101582.08;107804;1256;61012;-86
2023/05/17 11:34:18;;;;;;;;;;;;;;;18.51;37.26;101583.78;107348;1253;124974;-83
2023/05/17 11:36:55;;;;;;;;;;;;;;;18.38;37.14;101587.11;107445;1254;66890;-83
2023/05/17 11:39:22;;;;;;;;;;;;;;;18.28;37.56;101580.63;107302;1254;124870;-82
2023/05/17 11:41:50;;;;;;;;;;;;;;;18.34;37.87;101587.06;107401;1254;61285;-82
2023/05/17 11:44:25;;;;;;;;;;;;;;;18.37;37.82;101592.41;107553;1254;124273;-82
2023/05/17 11:47:13;;;;;;;;;;;;;;;18.25;37.28;101595.00;107760;1254;74647;-83
2023/05/17 11:49:41;;;;;;;;;;;;;;;18.11;37.12;101602.18;107788;1258;67023;-83
2023/05/17 11:52:08;;;;;;;;;;;;;;;17.96;36.93;101592.83;107676;1255;124551;-82
2023/05/17 11:54:37;;;;;;;;;;;;;;;17.76;36.71;101599.91;107585;1257;61116;-84
2023/05/17 11:57:04;;;;;;;;;;;;;;;17.69;37.13;101600.39;107563;1256;124729;-85
2023/05/17 11:59:40;;;;;;;;;;;;;;;17.73;37.56;101600.96;107475;1254;72388;-84
2023/05/17 12:02:07;;;;;;;;;;;;;;;17.76;37.65;101610.03;107428;1254;65456;-84
2023/05/17 12:04:36;;;;;;;;;;;;;;;17.71;37.43;101616.02;107221;1254;124674;-84
2023/05/17 12:07:03;;;;;;;;;;;;;;;17.64;37.51;101613.64;107293;1255;62198;-85
2023/05/17 12:09:33;;;;;;;;;;;;;;;17.56;37.48;101621.20;107640;1254;124039;-86
2023/05/17 12:12:03;;;;;;;;;;;;;;;17.45;37.38;101618.23;107715;1254;74669;-85
2023/05/17 12:14:31;;;;;;;;;;;;;;;17.31;37.64;101626.08;107630;1256;124229;-86
2023/05/17 12:16:58;;;;;;;;;;;;;;;17.22;37.83;101628.99;107583;1254;213040;-88
2023/05/17 12:19:28;;;;;;;;;;;;;;;17.16;37.99;101631.04;107476;1255;61304;-86
2023/05/17 12:22:13;;;;;;;;;;;;;;;17.08;38.25;101634.33;107581;1254;124423;-85
2023/05/17 12:24:47;;;;;;;;;;;;;;;17.04;38.63;101634.44;107774;1254;75782;-86
2023/05/17 12:27:18;;;;;;;;;;;;;;;17.00;38.49;101635.10;107675;1254;124079;-89
2023/05/17 12:29:48;;;;;;;;;;;;;;;16.89;38.58;101637.44;107586;1257;72544;-86
2023/05/17 12:32:15;;;;;;;;;;;;;;;16.76;38.59;101643.09;107250;1255;124195;-86
2023/05/17 12:34:49;;;;;;;;;;;;;;;16.64;38.88;101643.11;107179;1255;59711;-89
2023/05/17 12:37:22;;;;;;;;;;;;;;;16.56;39.12;101647.59;107292;1254;74694;-86